Tropical Cyclones
[Index]
Main Index Home Page Stock Weather Photos Extreme Storms Discussion Storm News and Storm Chasing Reports Tropical Cyclones / Hurricanes / Typhoons Weather Data and Links Wild Fires / Bushfires Weather Observation Techniques Weather Picture Catalogue Tornado Pictures and Reports Stock Video Footage and DVDs for sale
Season 1973-1974 Tropical Cyclone ISOBEL Track Map
Season 1973-1974 Summaries: [BoM-AU] [JTWC-AU] [JTWC-SIO] [JTWC-SPAC] [JTWC-SH]
<<- Previous TC | BoM 1973-1974 Season | Next TC ->>

click for intensity scale information  Lat/long Grid: Show Hide

 Date Labels: Show Hide

Bureau of Meteorology Tropical Cyclone Data

Name: ISOBEL
Number: 526 / 197374_16

09 Mar 1974 01:00 UTC to 17 Mar 1974 01:00 UTC

    date/time    lat    long    hPa   cat  kts
1974-03-09 01   12.3   111.6   1003                     
1974-03-09 04   12.3   111.5   1003                     
1974-03-09 07   12.4   111.4   1003                     
1974-03-09 10   12.5   111.2   1003                     
1974-03-09 13   12.6   111.0   1003                     
1974-03-09 16   12.6   110.8   1003                     
1974-03-09 19   12.7   110.6   1003                     
1974-03-09 22   12.8   110.5   1003                     
1974-03-10 01   13.0   110.3   1003                     
1974-03-10 04   13.2   110.2   1002                     
1974-03-10 07   13.3   110.1   1001                     
1974-03-10 10   13.3   109.9   1001                     
1974-03-10 13   13.4   109.7   1000                     
1974-03-10 16   13.5   109.6   1000                     
1974-03-10 19   13.6   109.5   1000                     
1974-03-10 22   13.6   109.4   1000                     
1974-03-11 01   13.8   109.3    999                     
1974-03-11 04   13.9   109.3    996                     
1974-03-11 07   14.0   109.2    993    1                
1974-03-11 10   14.2   109.1    991    1                
1974-03-11 13   14.3   108.9    989    1                
1974-03-11 16   14.4   108.8    984    2                
1974-03-11 19   14.6   108.7    985    2                
1974-03-11 22   14.7   108.6    983    2                
1974-03-12 01   14.8   108.6    981    2                
1974-03-12 04   15.2   108.5    980    2                
1974-03-12 07   15.6   108.4    978    2                
1974-03-12 10   16.1   108.3    977    2                
1974-03-12 13   16.5   108.2    976    2                
1974-03-12 16   16.8   108.1    975    2                
1974-03-12 19   17.3   107.9    974    2                
1974-03-12 22   17.6   107.7    974    2                
1974-03-13 01   18.1   107.6    973    2                
1974-03-13 04   18.6   107.4    975    2                
1974-03-13 07   19.2   107.2    975    2                
1974-03-13 10   19.6   106.9    977    2                
1974-03-13 13   20.2   106.6    982    2                
1974-03-13 16   20.4   106.2    986    1                
1974-03-13 19   20.7   105.7    985    2                
1974-03-13 22   21.0   105.4    986    1                
1974-03-14 01   21.3   104.9    988    1                
1974-03-14 04   21.6   104.4    990    1                
1974-03-14 07   21.8   103.7    989    1                
1974-03-14 10   22.2   103.3    990    1                
1974-03-14 13   22.5   102.6    993    1                
1974-03-14 16   22.8   102.0    994    1                
1974-03-14 19   23.1   101.3    993    1                
1974-03-14 22   23.4   100.7    993    1                
1974-03-15 01   23.6   100.1    994    1                
1974-03-15 04   23.7    99.5    995    1                
1974-03-15 07   23.7    98.7    994    1                
1974-03-15 10   23.6    98.1    996                     
1974-03-15 13   23.4    97.4   1000                     
1974-03-15 16   23.2    96.8   1003                     
1974-03-15 19   23.0    96.1   1002                     
1974-03-15 22   22.8    95.5   1002                     
1974-03-16 01   22.6    94.9   1003                     
1974-03-16 04   22.5    94.6   1004                     
1974-03-16 07   22.3    94.3   1003                     
1974-03-16 10   22.0    93.8   1004                     
1974-03-16 13   21.9    93.3   1005                     
1974-03-16 16   21.8    92.9   1006                     
1974-03-16 19   21.7    92.5   1005                     
1974-03-16 22   21.5    92.1   1005                     
1974-03-17 01   21.4    91.7   1006                     
Winds are 10-min average.

Tropical cyclone tracks developed by Michael Bath using data from the Bureau of Meteorology and Google Maps.


[Australian Severe Weather index] [Copyright Notice] [Email Contacts] [Search This Site] [Privacy Policy]
Document: tropical_cyclone_isobel.htm Updated: 30 May 2013